Time;durP1;ratioP1;P1;durP2;ratioP2;P2;SDS_P1;SDS_P2;PMS_P1;PMS_P2;Temp;Humidity;BMP_temperature;BMP_pressure;BME280_temperature;BME280_humidity;BME280_pressure;Samples;Min_cycle;Max_cycle;Signal;HPM_P1;HPM_P2
2022/12/30 00:02:29;;;;;;;21.90;6.80;;;;;;;6.91;76.39;99870.29;103203;1306;22481;-64
2022/12/30 00:05:00;;;;;;;17.80;6.20;;;;;;;6.87;76.41;99875.63;103372;1305;22418;-63
2022/12/30 00:07:34;;;;;;;18.90;7.10;;;;;;;6.81;76.32;99882.98;103166;1275;22486;-64
2022/12/30 00:10:06;;;;;;;22.20;7.90;;;;;;;6.75;76.35;99879.45;103300;1306;22588;-64
2022/12/30 00:35:19;;;;;;;19.50;6.60;;;;;;;6.44;76.91;99863.57;103096;1281;22501;-63
2022/12/30 00:37:50;;;;;;;19.50;6.90;;;;;;;6.44;76.94;99861.84;103342;1282;22465;-64
2022/12/30 00:40:21;;;;;;;22.80;7.80;;;;;;;6.44;76.98;99863.88;103284;1282;22475;-64
2022/12/30 00:43:10;;;;;;;16.60;6.70;;;;;;;6.44;76.93;99866.11;103256;1306;22921;-63
2022/12/30 00:45:43;;;;;;;22.70;8.10;;;;;;;6.45;76.86;99870.20;103314;1306;23236;-64
2022/12/30 00:56:42;;;;;;;26.00;8.90;;;;;;;6.46;76.98;99875.47;103250;1283;22771;-64
2022/12/30 00:59:14;;;;;;;23.40;7.70;;;;;;;6.45;76.94;99877.08;103331;1305;24375;-63
2022/12/30 01:01:45;;;;;;;24.50;8.90;;;;;;;6.46;77.01;99882.02;103459;1305;25062;-64
2022/12/30 01:04:15;;;;;;;23.90;7.80;;;;;;;6.46;76.96;99882.84;104165;1278;22500;-64
2022/12/30 01:06:46;;;;;;;25.30;9.70;;;;;;;6.46;77.09;99884.55;103420;1306;22476;-63
2022/12/30 01:09:17;;;;;;;28.90;11.20;;;;;;;6.45;77.02;99886.65;103301;1307;24353;-63
2022/12/30 01:12:07;;;;;;;26.90;9.80;;;;;;;6.46;77.07;99886.70;103299;1275;22884;-63
2022/12/30 01:14:40;;;;;;;29.30;10.20;;;;;;;6.46;77.01;99899.23;103403;1282;22470;-63
2022/12/30 01:17:13;;;;;;;23.50;8.00;;;;;;;6.46;76.95;99895.84;103402;1282;22465;-63
2022/12/30 01:19:44;;;;;;;20.30;8.10;;;;;;;6.46;76.96;99902.64;103464;1305;22481;-63
2022/12/30 01:22:15;;;;;;;21.50;8.60;;;;;;;6.46;77.20;99906.59;103252;1282;23209;-64
2022/12/30 01:24:46;;;;;;;22.50;8.80;;;;;;;6.46;77.23;99910.54;103375;1306;22465;-63
2022/12/30 01:27:18;;;;;;;24.50;8.60;;;;;;;6.47;77.15;99911.06;103368;1282;23229;-64
2022/12/30 01:29:49;;;;;;;21.70;7.50;;;;;;;6.46;77.18;99909.43;103308;1306;22482;-64
2022/12/30 01:32:21;;;;;;;19.90;7.60;;;;;;;6.46;77.16;99909.61;103287;1300;22542;-63
2022/12/30 01:34:55;;;;;;;18.80;6.80;;;;;;;6.44;77.16;99914.90;103272;1306;25627;-63
2022/12/30 01:37:26;;;;;;;17.20;6.30;;;;;;;6.44;77.22;99920.32;103356;1274;22465;-63
2022/12/30 01:39:57;;;;;;;21.20;8.00;;;;;;;6.42;77.21;99923.70;103156;1274;26259;-63
2022/12/30 01:42:30;;;;;;;17.90;6.30;;;;;;;6.41;77.26;99923.48;103295;1282;23199;-63
2022/12/30 01:45:14;;;;;;;18.00;6.50;;;;;;;6.42;77.32;99913.56;103430;1274;24376;-63
2022/12/30 01:47:48;;;;;;;18.70;6.20;;;;;;;6.42;77.57;99912.52;103316;1275;24653;-63
2022/12/30 01:50:37;;;;;;;20.10;6.20;;;;;;;6.42;77.42;99915.30;103326;1306;22489;-64
2022/12/30 01:53:12;;;;;;;19.20;7.20;;;;;;;6.44;77.52;99919.67;103408;1282;23083;-63
2022/12/30 01:55:48;;;;;;;21.30;7.50;;;;;;;6.44;77.47;99924.27;103339;1306;22462;-65
2022/12/30 01:58:24;;;;;;;17.50;6.30;;;;;;;6.45;77.67;99929.55;103278;1282;24269;-63
2022/12/30 02:00:55;;;;;;;16.60;5.70;;;;;;;6.46;77.57;99934.08;103403;1306;22481;-65
2022/12/30 02:03:33;;;;;;;22.30;7.40;;;;;;;6.47;77.58;99935.40;103249;1306;22451;-64
2022/12/30 02:06:05;;;;;;;19.50;6.20;;;;;;;6.47;77.58;99934.69;103315;1304;24023;-63
2022/12/30 02:08:37;;;;;;;18.80;6.20;;;;;;;6.47;77.76;99927.53;103217;1306;26495;-63
2022/12/30 02:11:08;;;;;;;16.20;6.60;;;;;;;6.47;77.76;99927.61;103375;1305;25274;-64
2022/12/30 02:13:39;;;;;;;19.30;7.50;;;;;;;6.48;77.81;99936.53;103437;1306;22417;-63
2022/12/30 02:16:37;;;;;;;18.90;6.70;;;;;;;6.49;77.82;99940.95;103262;1282;24350;-64
2022/12/30 02:19:43;;;;;;;16.60;6.60;;;;;;;6.48;77.75;99942.88;103551;1282;23654;-64
2022/12/30 02:22:25;;;;;;;18.30;6.60;;;;;;;6.47;77.88;99951.48;103301;1281;22468;-63
2022/12/30 02:25:19;;;;;;;18.60;6.10;;;;;;;6.47;77.93;99956.23;103334;1306;24294;-64
2022/12/30 02:28:32;;;;;;;22.40;7.30;;;;;;;6.47;78.11;99961.77;103217;1306;23086;-63
2022/12/30 02:31:23;;;;;;;16.80;7.00;;;;;;;6.47;78.13;99943.07;103354;1306;22487;-63
2022/12/30 02:34:02;;;;;;;22.70;7.30;;;;;;;6.48;78.09;99947.63;103381;1306;22451;-64
2022/12/30 02:36:44;;;;;;;18.30;6.40;;;;;;;6.47;78.12;99967.14;103298;1306;22466;-63
2022/12/30 02:39:24;;;;;;;18.20;5.90;;;;;;;6.47;78.13;99973.05;103242;1282;23216;-63
2022/12/30 02:44:56;;;;;;;19.00;6.00;;;;;;;6.44;78.27;99975.27;103168;1304;22462;-64
2022/12/30 02:47:34;;;;;;;21.40;6.90;;;;;;;6.45;78.41;99980.56;103295;1282;22467;-63
2022/12/30 02:53:00;;;;;;;17.10;6.50;;;;;;;6.44;78.53;99974.09;103234;1282;22465;-64
2022/12/30 02:55:31;;;;;;;17.30;6.40;;;;;;;6.43;78.60;99962.88;103352;1305;22460;-63
2022/12/30 02:58:02;;;;;;;22.70;7.60;;;;;;;6.45;78.64;99958.23;103294;1298;22466;-63
2022/12/30 03:03:58;;;;;;;21.30;7.30;;;;;;;6.46;78.71;99944.45;103233;1274;25323;-64
2022/12/30 03:06:50;;;;;;;15.80;5.30;;;;;;;6.45;78.70;99951.95;102681;1282;1349792;-63
2022/12/30 03:09:29;;;;;;;18.00;5.70;;;;;;;6.45;78.94;99961.92;104042;1304;22470;-65
2022/12/30 03:12:10;;;;;;;15.70;5.10;;;;;;;6.46;78.86;99971.94;103367;1306;25139;-63
2022/12/30 03:14:43;;;;;;;;;;;;;;;6.48;78.98;99975.06;103338;1282;22435;-63
2022/12/30 03:17:19;;;;;;;16.00;5.80;;;;;;;6.47;78.83;99985.67;103254;1282;22502;-63
2022/12/30 03:19:55;;;;;;;16.10;5.60;;;;;;;6.48;78.94;99986.05;103206;1281;24383;-64
2022/12/30 03:28:10;;;;;;;19.00;6.00;;;;;;;6.49;79.15;99995.42;103240;1287;24384;-63
2022/12/30 03:30:46;;;;;;;14.80;5.20;;;;;;;6.49;79.26;99996.48;103497;1298;23975;-64
2022/12/30 03:33:18;;;;;;;16.30;5.00;;;;;;;6.49;79.25;99997.89;103332;1305;22465;-64
2022/12/30 03:35:56;;;;;;;16.40;4.70;;;;;;;6.49;79.18;99999.47;103332;1306;25875;-64
2022/12/30 03:38:33;;;;;;;16.70;5.10;;;;;;;6.50;79.35;99994.60;103280;1281;22585;-63
2022/12/30 03:41:08;;;;;;;18.60;6.00;;;;;;;6.52;79.45;100006.19;103385;1282;24346;-63
2022/12/30 03:43:40;;;;;;;17.40;5.60;;;;;;;6.52;79.38;100008.62;103302;1306;22485;-64
2022/12/30 03:46:10;;;;;;;17.20;5.30;;;;;;;6.51;79.49;100008.59;103376;1298;22464;-64
2022/12/30 03:48:41;;;;;;;19.10;6.30;;;;;;;6.51;79.48;100013.02;103187;1306;22512;-64
2022/12/30 03:51:12;;;;;;;19.30;5.60;;;;;;;6.51;79.50;100018.98;103341;1281;22954;-64
2022/12/30 03:53:43;;;;;;;16.10;5.80;;;;;;;6.52;79.51;100025.04;103286;1306;22497;-64
2022/12/30 03:56:14;;;;;;;19.10;5.60;;;;;;;6.52;79.55;100025.98;103280;1305;24734;-64
2022/12/30 03:58:46;;;;;;;17.90;4.90;;;;;;;6.52;79.58;100024.95;103192;1282;23898;-64
2022/12/30 04:01:16;;;;;;;13.90;4.70;;;;;;;6.51;79.64;100021.81;103433;1274;22461;-64
2022/12/30 04:03:47;;;;;;;15.50;4.30;;;;;;;6.51;79.73;100024.28;103262;1282;25460;-64
2022/12/30 04:06:18;;;;;;;19.10;6.50;;;;;;;6.49;79.83;100023.57;103223;1282;24265;-64
2022/12/30 04:08:49;;;;;;;16.50;5.80;;;;;;;6.49;79.85;100021.67;103190;1306;22590;-64
2022/12/30 04:11:20;;;;;;;21.00;6.20;;;;;;;6.49;79.92;100023.09;103381;1306;23881;-64
2022/12/30 04:13:51;;;;;;;19.70;5.50;;;;;;;6.50;79.99;100027.16;103268;1305;22461;-64
2022/12/30 04:16:23;;;;;;;12.30;4.50;;;;;;;6.50;79.97;100030.89;103301;1299;24174;-63
2022/12/30 04:18:54;;;;;;;16.10;5.00;;;;;;;6.50;79.98;100039.20;103258;1282;24295;-63
2022/12/30 04:21:24;;;;;;;16.40;5.70;;;;;;;6.50;79.92;100039.79;103318;1282;24327;-63
2022/12/30 04:23:55;;;;;;;18.60;5.70;;;;;;;6.48;80.07;100043.95;103285;1306;22462;-63
2022/12/30 04:26:26;;;;;;;18.20;5.60;;;;;;;6.49;80.14;100042.66;103270;1275;24254;-65
2022/12/30 04:28:57;;;;;;;16.60;5.40;;;;;;;6.49;80.14;100047.90;103281;1298;22488;-63
2022/12/30 04:31:28;;;;;;;26.40;6.10;;;;;;;6.48;80.13;100052.83;103264;1297;24250;-63
2022/12/30 04:33:59;;;;;;;25.20;6.70;;;;;;;6.47;80.17;100054.85;103280;1298;22722;-63
2022/12/30 04:36:30;;;;;;;22.90;6.60;;;;;;;6.46;80.11;100062.27;103322;1282;22515;-66
2022/12/30 04:39:01;;;;;;;22.20;6.60;;;;;;;6.45;80.22;100062.48;103236;1306;25536;-64
2022/12/30 04:41:32;;;;;;;21.30;6.40;;;;;;;6.45;80.41;100071.89;103210;1282;22596;-64
2022/12/30 04:44:04;;;;;;;16.30;5.20;;;;;;;6.46;80.31;100075.52;103402;1282;23097;-64
2022/12/30 04:46:35;;;;;;;15.20;5.70;;;;;;;6.45;80.37;100084.27;103356;1306;25391;-63
2022/12/30 04:49:06;;;;;;;21.70;5.90;;;;;;;6.44;80.39;100092.22;103241;1305;22469;-63
2022/12/30 04:51:37;;;;;;;16.50;5.50;;;;;;;6.43;80.41;100095.20;103186;1298;24399;-64
2022/12/30 04:54:08;;;;;;;18.00;4.90;;;;;;;6.43;80.60;100096.67;103308;1282;22464;-63
2022/12/30 04:56:39;;;;;;;17.90;4.50;;;;;;;6.44;80.56;100093.25;103393;1275;22594;-63
2022/12/30 04:59:10;;;;;;;13.90;4.20;;;;;;;6.44;80.64;100095.47;103259;1306;25383;-63
2022/12/30 05:01:41;;;;;;;17.20;4.10;;;;;;;6.43;80.69;100103.98;103304;1282;22449;-63
2022/12/30 05:04:12;;;;;;;18.60;4.70;;;;;;;6.43;80.72;100113.41;103347;1306;22437;-63
2022/12/30 05:06:43;;;;;;;15.80;4.60;;;;;;;6.43;80.74;100119.59;103277;1278;22458;-63
2022/12/30 05:09:13;;;;;;;17.10;4.40;;;;;;;6.42;80.78;100122.48;103348;1284;24340;-63
2022/12/30 05:11:44;;;;;;;15.90;4.10;;;;;;;6.42;80.74;100126.27;104168;1275;24358;-64
2022/12/30 05:14:15;;;;;;;15.90;4.70;;;;;;;6.43;80.88;100126.80;103508;1274;22467;-64
2022/12/30 05:16:46;;;;;;;14.30;4.10;;;;;;;6.43;80.86;100132.20;103320;1306;24925;-63
2022/12/30 05:19:17;;;;;;;17.40;4.80;;;;;;;6.43;81.00;100134.23;103752;1289;22449;-63
2022/12/30 05:21:49;;;;;;;14.80;4.50;;;;;;;6.42;81.07;100139.03;103436;1298;23205;-64
2022/12/30 05:27:08;;;;;;;17.40;4.20;;;;;;;6.40;81.14;100152.27;103409;1291;23196;-63
2022/12/30 05:29:39;;;;;;;14.60;4.10;;;;;;;6.40;81.11;100149.73;103452;1301;24272;-63
2022/12/30 05:32:10;;;;;;;21.00;4.60;;;;;;;6.40;81.27;100156.77;103199;1298;25262;-64
2022/12/30 05:34:41;;;;;;;19.50;4.30;;;;;;;6.41;81.37;100161.02;103247;1305;22481;-63
2022/12/30 05:37:12;;;;;;;23.20;4.20;;;;;;;6.41;81.37;100167.98;103336;1282;23861;-63
2022/12/30 05:39:43;;;;;;;20.20;4.20;;;;;;;6.42;81.37;100177.30;103407;1297;26479;-63
2022/12/30 05:42:14;;;;;;;13.80;4.20;;;;;;;6.43;81.41;100183.32;103206;1282;22534;-63
2022/12/30 05:44:45;;;;;;;21.80;4.20;;;;;;;6.44;81.69;100184.45;103337;1304;22649;-64
2022/12/30 05:47:16;;;;;;;11.50;3.10;;;;;;;6.45;81.60;100188.78;103316;1289;22474;-62
2022/12/30 05:49:47;;;;;;;14.00;4.40;;;;;;;6.45;81.62;100192.58;103431;1275;22474;-64
2022/12/30 05:52:19;;;;;;;16.70;4.80;;;;;;;6.46;81.54;100188.80;103375;1281;25312;-63
2022/12/30 05:54:50;;;;;;;13.80;3.40;;;;;;;6.47;81.67;100185.75;103312;1281;25554;-62
2022/12/30 05:57:21;;;;;;;14.40;3.50;;;;;;;6.48;81.56;100189.35;102960;1305;24327;-63
2022/12/30 05:59:52;;;;;;;9.80;2.70;;;;;;;6.50;81.61;100193.90;102816;1306;22633;-63
2022/12/30 06:02:22;;;;;;;11.90;2.90;;;;;;;6.51;81.56;100195.42;102940;1275;22471;-63
2022/12/30 06:04:53;;;;;;;14.80;3.50;;;;;;;6.52;81.51;100195.70;102882;1275;25179;-63
2022/12/30 06:07:24;;;;;;;11.90;2.70;;;;;;;6.54;81.54;100203.41;103113;1297;22463;-63
2022/12/30 06:09:55;;;;;;;9.10;2.40;;;;;;;6.54;81.64;100205.94;103156;1305;22475;-66
2022/12/30 06:12:26;;;;;;;11.90;2.90;;;;;;;6.54;81.56;100210.44;103214;1282;24317;-62
2022/12/30 06:14:57;;;;;;;14.00;3.20;;;;;;;6.53;81.53;100212.16;103155;1304;25288;-63
2022/12/30 06:17:28;;;;;;;12.10;2.30;;;;;;;6.53;81.52;100206.98;103250;1306;22535;-62
2022/12/30 06:19:59;;;;;;;11.30;3.00;;;;;;;6.52;81.54;100207.04;103437;1292;24260;-63
2022/12/30 06:22:30;;;;;;;14.20;3.10;;;;;;;6.50;81.54;100206.72;103435;1304;24269;-62
2022/12/30 06:25:01;;;;;;;9.30;2.50;;;;;;;6.48;81.49;100212.19;103429;1288;24250;-64
2022/12/30 06:27:32;;;;;;;11.20;2.90;;;;;;;6.45;81.42;100221.41;103486;1291;22477;-63
2022/12/30 06:30:03;;;;;;;12.20;3.10;;;;;;;6.42;81.30;100220.89;103422;1305;26282;-63
2022/12/30 06:32:33;;;;;;;16.20;3.70;;;;;;;6.39;81.42;100223.67;103490;1306;25389;-63
2022/12/30 06:35:06;;;;;;;13.10;3.40;;;;;;;6.37;81.24;100225.98;103468;1274;22476;-63
2022/12/30 06:37:37;;;;;;;11.80;3.40;;;;;;;6.33;81.19;100232.59;103394;1304;23054;-63
2022/12/30 06:40:11;;;;;;;11.20;2.50;;;;;;;6.29;81.21;100233.34;103346;1306;22469;-64
2022/12/30 06:42:41;;;;;;;11.30;2.70;;;;;;;6.24;81.33;100233.26;103492;1282;22466;-64
2022/12/30 06:45:13;;;;;;;10.20;2.50;;;;;;;6.19;81.24;100238.48;103403;1284;25515;-63
2022/12/30 06:47:44;;;;;;;12.10;3.90;;;;;;;6.16;81.21;100241.54;103342;1280;26613;-63
2022/12/30 06:50:15;;;;;;;11.50;3.00;;;;;;;6.12;81.22;100248.90;103382;1291;25372;-63
2022/12/30 06:52:46;;;;;;;12.80;3.80;;;;;;;6.08;81.37;100252.50;103412;1298;24355;-66
2022/12/30 06:55:17;;;;;;;12.60;3.00;;;;;;;6.04;81.39;100253.60;103362;1282;22713;-63
2022/12/30 06:57:48;;;;;;;18.30;4.70;;;;;;;6.00;81.47;100256.43;103359;1306;22492;-64
2022/12/30 07:00:20;;;;;;;14.50;3.80;;;;;;;5.97;81.72;100259.39;103364;1303;25227;-63
2022/12/30 07:02:50;;;;;;;15.00;4.30;;;;;;;5.94;81.78;100267.80;103502;1278;25339;-63
2022/12/30 07:05:21;;;;;;;15.80;3.70;;;;;;;5.94;81.88;100274.23;103394;1285;22598;-63
2022/12/30 07:07:52;;;;;;;18.80;4.50;;;;;;;5.93;81.87;100277.71;103453;1298;24366;-65
2022/12/30 07:10:23;;;;;;;14.50;4.60;;;;;;;5.92;81.98;100283.31;103343;1281;22547;-63
2022/12/30 07:12:54;;;;;;;19.60;4.70;;;;;;;5.91;82.06;100288.02;103300;1282;22861;-63
2022/12/30 07:15:25;;;;;;;19.30;5.00;;;;;;;5.89;82.08;100285.14;103784;1300;22711;-64
2022/12/30 07:17:56;;;;;;;14.20;4.30;;;;;;;5.88;82.01;100289.52;103824;1298;22464;-64
2022/12/30 07:20:27;;;;;;;16.30;5.30;;;;;;;5.87;81.99;100291.64;103621;1282;23583;-57
2022/12/30 07:22:58;;;;;;;14.60;4.60;;;;;;;5.85;81.98;100294.14;103559;1281;24376;-59
2022/12/30 07:25:29;;;;;;;17.00;5.10;;;;;;;5.84;82.14;100300.75;103773;1306;24051;-60
2022/12/30 07:28:01;;;;;;;18.10;5.10;;;;;;;5.81;82.05;100300.12;103859;1298;24038;-60
2022/12/30 07:30:33;;;;;;;19.70;6.10;;;;;;;5.79;82.03;100300.95;103830;1282;23822;-59
2022/12/30 07:33:04;;;;;;;16.30;5.30;;;;;;;5.78;82.12;100304.33;103821;1306;25652;-59
2022/12/30 07:35:35;;;;;;;21.70;6.10;;;;;;;5.77;82.20;100306.48;103745;1306;24318;-59
2022/12/30 07:38:06;;;;;;;18.70;5.20;;;;;;;5.76;82.15;100311.73;103854;1306;22507;-60
2022/12/30 07:40:37;;;;;;;23.40;7.00;;;;;;;5.74;82.18;100314.95;103761;1297;22512;-61
2022/12/30 07:43:08;;;;;;;18.40;5.80;;;;;;;5.72;82.23;100323.17;103658;1282;24255;-59
2022/12/30 07:45:39;;;;;;;20.80;6.40;;;;;;;5.69;82.28;100322.40;103754;1281;24376;-60
2022/12/30 07:48:10;;;;;;;18.90;6.40;;;;;;;5.66;82.25;100329.14;103694;1282;22554;-60
2022/12/30 07:50:42;;;;;;;18.10;5.10;;;;;;;5.64;82.28;100335.40;103806;1282;24350;-60
2022/12/30 07:53:13;;;;;;;21.20;7.10;;;;;;;5.62;82.35;100341.63;104004;1291;25429;-59
2022/12/30 07:55:43;;;;;;;21.30;6.50;;;;;;;5.56;82.47;100341.87;103823;1306;24269;-58
2022/12/30 07:58:14;;;;;;;21.50;7.00;;;;;;;5.54;82.69;100344.63;103804;1282;24270;-61
2022/12/30 08:00:46;;;;;;;22.40;6.60;;;;;;;5.50;82.83;100346.48;103561;1281;22462;-61
2022/12/30 08:03:17;;;;;;;17.00;5.60;;;;;;;5.47;82.81;100351.23;103700;1281;22580;-60
2022/12/30 08:05:48;;;;;;;18.80;6.30;;;;;;;5.46;83.08;100352.63;103806;1282;22592;-61
2022/12/30 08:08:19;;;;;;;17.50;5.50;;;;;;;5.46;83.03;100361.59;103608;1281;22458;-60
2022/12/30 08:10:57;;;;;;;18.90;6.00;;;;;;;5.45;83.30;100362.63;103594;1304;22463;-61
2022/12/30 08:13:30;;;;;;;16.40;5.40;;;;;;;5.45;83.37;100358.59;103695;1306;22501;-59
2022/12/30 08:16:03;;;;;;;18.60;5.40;;;;;;;5.45;83.27;100365.95;103565;1300;22600;-61
2022/12/30 08:18:34;;;;;;;22.00;6.30;;;;;;;5.45;83.41;100371.88;103661;1275;25587;-59
2022/12/30 08:21:10;;;;;;;20.90;5.40;;;;;;;5.45;83.37;100379.70;103576;1275;22864;-61
2022/12/30 08:23:44;;;;;;;21.90;6.40;;;;;;;5.46;83.51;100377.86;103601;1306;25393;-60
2022/12/30 08:26:17;;;;;;;19.80;5.50;;;;;;;5.47;83.60;100385.82;103573;1306;22568;-60
2022/12/30 08:28:49;;;;;;;17.90;5.40;;;;;;;5.47;83.62;100390.09;103466;1281;22487;-63
2022/12/30 08:31:22;;;;;;;18.50;5.00;;;;;;;5.49;83.66;100395.16;103585;1301;25581;-61
2022/12/30 08:33:54;;;;;;;19.70;4.60;;;;;;;5.52;83.64;100402.61;103432;1282;24790;-60
2022/12/30 08:36:27;;;;;;;19.60;4.40;;;;;;;5.54;83.81;100407.45;103664;1282;22734;-60
2022/12/30 08:39:02;;;;;;;17.30;4.50;;;;;;;5.56;83.74;100410.40;103639;1283;22460;-61
2022/12/30 08:41:35;;;;;;;18.10;4.10;;;;;;;5.57;83.89;100414.48;103682;1282;22502;-60
2022/12/30 08:44:08;;;;;;;20.90;4.50;;;;;;;5.61;83.89;100419.52;103655;1282;23097;-61
2022/12/30 08:46:41;;;;;;;20.20;4.50;;;;;;;5.64;83.99;100421.48;103718;1300;23781;-60
2022/12/30 08:49:13;;;;;;;16.50;3.60;;;;;;;5.68;84.08;100429.66;103677;1282;22475;-59
2022/12/30 08:51:44;;;;;;;14.90;3.40;;;;;;;5.71;84.16;100432.42;103661;1288;22501;-60
2022/12/30 08:54:24;;;;;;;16.10;3.90;;;;;;;5.75;84.14;100435.38;103717;1299;22497;-60
2022/12/30 08:56:55;;;;;;;15.30;3.50;;;;;;;5.80;84.30;100434.21;103860;1306;24232;-60
2022/12/30 08:59:26;;;;;;;15.10;3.40;;;;;;;5.85;84.34;100441.52;104000;1304;22963;-61
2022/12/30 09:01:57;;;;;;;19.00;3.60;;;;;;;5.91;84.26;100444.84;103820;1298;22488;-60
2022/12/30 09:04:29;;;;;;;15.80;3.60;;;;;;;5.96;84.20;100449.12;103716;1281;22475;-61
2022/12/30 09:07:00;;;;;;;13.30;3.40;;;;;;;6.02;84.22;100458.13;103657;1291;22567;-60
2022/12/30 09:09:31;;;;;;;17.50;3.70;;;;;;;6.09;84.34;100464.94;103694;1281;26962;-61
2022/12/30 09:12:02;;;;;;;15.10;4.00;;;;;;;6.16;84.31;100463.30;103682;1289;22498;-61
2022/12/30 09:14:33;;;;;;;16.60;3.50;;;;;;;6.24;84.30;100463.61;103711;1289;22482;-62
2022/12/30 09:17:04;;;;;;;18.30;4.90;;;;;;;6.33;84.51;100464.39;103769;1282;24525;-60
2022/12/30 09:19:35;;;;;;;20.00;4.30;;;;;;;6.45;84.47;100464.97;104066;1281;25383;-61
2022/12/30 09:22:07;;;;;;;16.30;3.90;;;;;;;6.56;84.26;100464.55;103644;1274;22487;-61
2022/12/30 09:24:37;;;;;;;14.70;3.50;;;;;;;6.66;84.18;100457.16;103443;1298;22424;-61
2022/12/30 09:27:08;;;;;;;17.00;3.20;;;;;;;6.75;84.12;100454.08;103546;1282;24209;-61
2022/12/30 09:29:39;;;;;;;14.00;2.70;;;;;;;6.85;83.98;100457.39;103605;1289;23095;-61
2022/12/30 09:32:10;;;;;;;15.10;3.70;;;;;;;6.95;83.83;100463.91;103476;1305;24379;-61
2022/12/30 09:34:42;;;;;;;11.80;2.80;;;;;;;7.04;83.81;100468.79;103523;1306;23221;-61
2022/12/30 09:37:13;;;;;;;15.00;3.40;;;;;;;7.11;83.64;100471.52;103528;1290;24214;-61
2022/12/30 09:39:44;;;;;;;19.50;4.00;;;;;;;7.21;83.61;100472.38;103608;1283;24245;-59
2022/12/30 09:45:23;;;;;;;12.80;2.90;;;;;;;7.42;83.46;100467.88;103372;1288;22542;-61
2022/12/30 09:47:58;;;;;;;18.60;3.30;;;;;;;7.49;83.40;100467.06;103643;1292;23882;-61
2022/12/30 09:50:37;;;;;;;14.20;3.60;;;;;;;7.55;83.31;100466.63;103526;1281;22692;-62
2022/12/30 09:53:15;;;;;;;16.30;3.50;;;;;;;7.61;83.33;100465.98;103568;1306;23871;-61
2022/12/30 09:55:53;;;;;;;12.80;3.10;;;;;;;7.68;83.35;100465.19;103574;1282;22462;-60
2022/12/30 09:58:27;;;;;;;13.50;3.10;;;;;;;7.75;83.31;100465.13;103475;1282;22469;-62
2022/12/30 10:01:05;;;;;;;12.70;2.70;;;;;;;7.83;83.28;100470.24;103625;1306;22432;-62
2022/12/30 10:03:36;;;;;;;17.00;2.50;;;;;;;7.92;83.19;100472.35;103650;1282;23954;-61
2022/12/30 10:06:22;;;;;;;18.30;2.90;;;;;;;8.00;83.32;100474.83;103589;1305;22457;-61
2022/12/30 10:09:29;;;;;;;10.60;3.10;;;;;;;8.10;83.46;100475.05;103553;1306;25608;-61
2022/12/30 10:12:24;;;;;;;16.50;3.30;;;;;;;8.25;83.36;100473.88;103590;1306;22518;-65
2022/12/30 10:15:06;;;;;;;13.70;3.30;;;;;;;8.36;83.20;100469.56;103022;1303;22859;-61
2022/12/30 10:17:58;;;;;;;16.00;3.20;;;;;;;8.44;82.93;100469.55;103018;1305;25885;-60
2022/12/30 10:20:45;;;;;;;16.20;3.00;;;;;;;8.53;82.78;100473.36;102886;1288;24352;-63
2022/12/30 10:23:35;;;;;;;12.10;2.50;;;;;;;8.60;82.68;100474.98;102940;1288;24374;-61
2022/12/30 10:26:13;;;;;;;12.40;2.50;;;;;;;8.65;82.27;100474.83;102975;1312;25742;-60
2022/12/30 10:28:58;;;;;;;9.60;2.10;;;;;;;8.67;81.87;100477.17;102949;1287;22479;-61
2022/12/30 10:31:37;;;;;;;9.00;2.10;;;;;;;8.71;81.68;100472.02;102877;1297;22503;-59
2022/12/30 10:34:16;;;;;;;10.10;2.00;;;;;;;8.72;81.38;100470.60;103380;1307;22646;-61
2022/12/30 10:36:56;;;;;;;9.40;1.80;;;;;;;8.74;81.10;100464.73;102946;1306;22536;-61
2022/12/30 10:39:33;;;;;;;6.60;1.50;;;;;;;8.76;80.65;100468.42;103003;1312;25383;-62
2022/12/30 10:42:30;;;;;;;7.70;1.10;;;;;;;8.78;80.48;100458.32;102952;1312;22472;-60
2022/12/30 10:45:24;;;;;;;9.00;1.70;;;;;;;8.80;80.13;100451.09;103123;1312;24203;-60
2022/12/30 10:48:10;;;;;;;9.50;1.80;;;;;;;8.83;80.17;100444.91;102903;1304;22867;-62
2022/12/30 10:50:46;;;;;;;12.10;1.70;;;;;;;8.85;80.10;100439.69;103171;1312;22528;-60
2022/12/30 10:53:21;;;;;;;8.50;1.40;;;;;;;8.88;80.04;100445.85;103412;1291;22472;-60
2022/12/30 10:55:54;;;;;;;7.40;1.20;;;;;;;8.90;79.85;100443.52;103599;1274;25102;-60
2022/12/30 10:58:33;;;;;;;10.00;1.40;;;;;;;8.90;79.51;100441.36;103612;1307;22497;-61
2022/12/30 11:01:06;;;;;;;9.70;1.70;;;;;;;8.91;79.36;100442.28;103456;1288;22592;-61
2022/12/30 11:03:45;;;;;;;9.70;1.40;;;;;;;8.91;79.31;100437.80;103537;1281;24213;-61
2022/12/30 11:06:28;;;;;;;7.00;1.60;;;;;;;8.94;79.14;100437.70;103515;1306;24165;-59
2022/12/30 11:09:22;;;;;;;9.80;1.30;;;;;;;8.94;78.30;100437.77;103369;1281;25259;-59
2022/12/30 11:14:44;;;;;;;;;;;;;;;8.93;78.06;100428.35;103541;1306;22443;-62
2022/12/30 11:17:25;;;;;;;8.40;1.80;;;;;;;8.95;78.23;100426.10;103531;1281;22583;-59
2022/12/30 11:19:56;;;;;;;;;;;;;;;8.98;78.84;100425.19;103622;1303;22463;-61
2022/12/30 11:22:28;;;;;;;11.20;1.50;;;;;;;9.01;78.66;100424.66;103529;1282;24293;-62
2022/12/30 11:25:06;;;;;;;6.90;1.40;;;;;;;9.03;78.44;100419.90;103712;1274;26571;-60
2022/12/30 11:27:43;;;;;;;9.00;1.30;;;;;;;9.03;77.88;100416.65;103551;1282;22479;-60
2022/12/30 11:30:30;;;;;;;11.50;1.50;;;;;;;9.03;78.37;100411.54;103458;1281;22454;-60
2022/12/30 11:33:05;;;;;;;7.50;1.50;;;;;;;9.05;78.26;100415.52;103597;1309;23773;-59
2022/12/30 11:35:39;;;;;;;6.80;1.40;;;;;;;9.07;77.91;100416.93;103472;1300;22411;-59
2022/12/30 11:38:32;;;;;;;15.40;1.30;;;;;;;9.09;77.69;100409.92;103585;1298;22482;-59
2022/12/30 11:41:20;;;;;;;7.70;1.10;;;;;;;9.10;77.70;100402.92;103501;1292;24263;-60
2022/12/30 11:44:05;;;;;;;7.70;1.10;;;;;;;9.12;77.38;100404.11;103369;1282;22488;-60
2022/12/30 11:46:39;;;;;;;7.80;1.00;;;;;;;9.15;77.31;100396.90;106850;1281;22235;-61
2022/12/30 11:49:25;;;;;;;4.80;0.60;;;;;;;9.16;76.47;100392.98;106851;1292;22235;-61
2022/12/30 11:51:59;;;;;;;6.90;0.70;;;;;;;9.18;76.16;100393.61;106818;1281;22174;-64
2022/12/30 11:54:34;;;;;;;7.20;0.80;;;;;;;9.19;76.00;100394.75;106879;1281;22385;-61
2022/12/30 11:57:08;;;;;;;8.00;0.90;;;;;;;9.19;75.93;100392.84;106872;1295;22182;-62
2022/12/30 11:59:44;;;;;;;7.70;1.40;;;;;;;9.19;76.34;100391.23;105497;1295;25853;-61
2022/12/30 12:02:25;;;;;;;7.50;1.10;;;;;;;9.21;76.39;100388.14;103350;1295;25436;-60
2022/12/30 12:04:57;;;;;;;7.70;1.20;;;;;;;9.23;76.16;100389.35;103395;1298;22489;-59
2022/12/30 12:07:37;;;;;;;9.40;1.40;;;;;;;9.23;76.17;100390.17;103284;1282;22457;-61
2022/12/30 12:10:19;;;;;;;6.20;1.20;;;;;;;9.25;76.15;100384.70;103306;1289;22667;-62
2022/12/30 12:12:56;;;;;;;8.00;1.00;;;;;;;9.25;76.10;100382.70;103290;1281;24733;-61
2022/12/30 12:15:32;;;;;;;8.80;1.20;;;;;;;9.25;75.96;100377.42;103333;1281;27390;-60
2022/12/30 12:18:20;;;;;;;10.00;1.30;;;;;;;9.26;75.87;100373.11;103461;1305;22727;-59
2022/12/30 12:21:09;;;;;;;11.00;1.60;;;;;;;9.26;75.65;100375.91;103364;1308;22486;-61
2022/12/30 12:23:51;;;;;;;7.70;1.60;;;;;;;9.26;75.71;100377.73;103534;1305;26944;-60
2022/12/30 12:26:24;;;;;;;13.20;1.80;;;;;;;9.26;75.90;100373.66;103406;1281;25266;-59
2022/12/30 12:28:57;;;;;;;7.70;1.30;;;;;;;9.25;76.00;100378.02;103531;1288;22468;-60
2022/12/30 12:31:46;;;;;;;11.80;1.80;;;;;;;9.24;75.84;100383.39;103325;1282;24253;-61
2022/12/30 12:34:31;;;;;;;11.60;2.10;;;;;;;9.23;75.78;100384.08;103653;1281;22625;-60
2022/12/30 12:37:12;;;;;;;9.10;1.90;;;;;;;9.22;75.94;100383.62;103403;1302;22596;-64
2022/12/30 12:39:58;;;;;;;9.50;1.80;;;;;;;9.22;76.00;100389.20;103505;1283;22552;-60
2022/12/30 12:42:36;;;;;;;8.30;2.10;;;;;;;9.22;75.98;100389.54;103426;1287;22463;-61
2022/12/30 12:45:20;;;;;;;8.20;1.40;;;;;;;9.22;75.83;100390.65;103652;1282;25044;-60
2022/12/30 12:48:18;;;;;;;9.80;1.30;;;;;;;9.22;75.63;100385.29;103419;1289;22464;-61
2022/12/30 12:51:07;;;;;;;10.90;1.70;;;;;;;9.23;75.83;100378.20;103519;1301;24263;-60
2022/12/30 12:53:52;;;;;;;7.80;1.40;;;;;;;9.24;75.83;100381.09;103418;1281;24360;-62